Time;durP1;ratioP1;P1;durP2;ratioP2;P2;SDS_P1;SDS_P2;PMS_P1;PMS_P2;Temp;Humidity;BMP_temperature;BMP_pressure;BME280_temperature;BME280_humidity;BME280_pressure;Samples;Min_cycle;Max_cycle;Signal;HPM_P1;HPM_P2
2022/12/08 00:01:20;;;;;;;2.58;0.98;;;;;;;8.19;69.26;101225.16;5012830;28;20037;-43
2022/12/08 00:03:46;;;;;;;1.48;0.80;;;;;;;8.06;69.45;101216.16;5013288;28;20077;-45
2022/12/08 00:09:21;;;;;;;4.47;1.10;;;;;;;8.06;69.56;101210.97;5013786;28;20099;-48
2022/12/08 00:11:53;;;;;;;1.95;0.82;;;;;;;8.24;69.60;101202.81;5012571;28;20026;-47
2022/12/08 00:14:21;;;;;;;2.83;0.70;;;;;;;8.35;68.64;101204.03;5012539;28;20030;-45
2022/12/08 00:16:46;;;;;;;3.03;1.00;;;;;;;8.35;68.29;101196.25;5011667;28;20112;-45
2022/12/08 00:19:12;;;;;;;2.95;0.80;;;;;;;8.28;68.72;101186.50;5011484;28;20125;-43
2022/12/08 00:21:37;;;;;;;2.08;0.98;;;;;;;8.22;68.72;101182.00;5011619;28;20486;-45
2022/12/08 00:24:02;;;;;;;2.72;0.90;;;;;;;8.15;68.98;101188.75;5011840;28;20061;-44
2022/12/08 00:26:28;;;;;;;2.45;1.00;;;;;;;8.24;68.31;101182.03;5011926;28;20045;-45
2022/12/08 00:28:53;;;;;;;2.92;1.25;;;;;;;8.17;68.67;101181.00;5011596;28;20026;-45
2022/12/08 00:31:18;;;;;;;3.65;1.63;;;;;;;8.17;68.82;101169.72;5011385;28;20088;-42
2022/12/08 00:33:44;;;;;;;4.45;2.20;;;;;;;8.22;68.67;101163.81;5012016;28;20064;-44
2022/12/08 00:36:13;;;;;;;5.25;3.05;;;;;;;8.20;68.83;101162.88;5010497;28;20030;-42
2022/12/08 00:38:40;;;;;;;5.85;3.60;;;;;;;8.18;69.14;101155.88;5014459;28;20034;-44
2022/12/08 00:41:12;;;;;;;7.65;5.22;;;;;;;8.22;69.17;101158.63;5013858;28;20092;-42
2022/12/08 00:43:37;;;;;;;7.88;5.13;;;;;;;8.26;69.15;101164.78;5014620;28;20397;-43
2022/12/08 00:46:02;;;;;;;10.57;6.78;;;;;;;8.30;69.74;101158.81;5017449;28;20053;-44
2022/12/08 00:48:28;;;;;;;11.68;7.45;;;;;;;8.23;69.44;101154.31;5016840;28;20036;-47
2022/12/08 00:50:53;;;;;;;10.23;7.18;;;;;;;8.31;69.26;101155.41;5015899;28;20040;-44
2022/12/08 00:53:18;;;;;;;14.68;7.97;;;;;;;8.05;70.25;101152.94;5014522;28;20053;-45
2022/12/08 00:55:44;;;;;;;13.55;8.30;;;;;;;7.84;70.95;101156.66;5014953;28;20398;-42
2022/12/08 00:58:09;;;;;;;15.73;8.98;;;;;;;7.95;71.50;101157.84;5014221;28;20038;-44
2022/12/08 01:00:34;;;;;;;14.43;8.68;;;;;;;7.91;71.20;101162.09;5014551;28;20022;-43
2022/12/08 01:02:59;;;;;;;14.75;9.43;;;;;;;7.84;72.07;101169.66;5014533;28;20033;-43
2022/12/08 01:05:25;;;;;;;12.68;7.75;;;;;;;7.77;72.34;101166.00;5013615;28;20029;-43
2022/12/08 01:07:50;;;;;;;14.88;8.10;;;;;;;8.04;71.71;101171.09;5013722;28;20115;-47
2022/12/08 01:10:16;;;;;;;15.48;7.57;;;;;;;8.06;71.05;101159.03;5013447;28;20022;-43
2022/12/08 01:12:41;;;;;;;7.10;3.10;;;;;;;7.55;71.89;101138.53;5013292;28;20022;-44
2022/12/08 01:15:07;;;;;;;5.43;2.90;;;;;;;7.71;71.77;101135.56;5016196;28;20113;-43
2022/12/08 01:17:32;;;;;;;3.13;1.95;;;;;;;7.97;70.29;101130.22;5015755;28;20057;-43
2022/12/08 01:19:58;;;;;;;2.38;1.20;;;;;;;7.60;70.44;101125.69;5015831;28;20030;-45
2022/12/08 01:22:24;;;;;;;2.83;1.23;;;;;;;8.30;68.41;101118.16;5014212;28;20548;-45
2022/12/08 01:24:49;;;;;;;4.28;1.30;;;;;;;8.33;68.28;101118.25;5014613;28;20408;-44
2022/12/08 01:27:15;;;;;;;3.58;1.20;;;;;;;8.43;67.99;101112.47;5014499;28;20109;-46
2022/12/08 01:29:40;;;;;;;3.50;1.02;;;;;;;8.18;68.99;101116.94;5014913;28;20101;-44
2022/12/08 01:32:07;;;;;;;2.92;1.00;;;;;;;8.38;68.20;101127.06;5014576;28;20025;-43
2022/12/08 01:34:32;;;;;;;2.25;1.27;;;;;;;8.47;67.94;101121.22;5014511;28;20092;-44
2022/12/08 01:36:58;;;;;;;3.05;1.20;;;;;;;8.55;67.85;101111.88;5013818;28;20018;-44
2022/12/08 01:39:23;;;;;;;3.05;0.90;;;;;;;8.60;67.34;101109.44;5013692;28;20036;-45
2022/12/08 01:41:48;;;;;;;2.13;0.93;;;;;;;8.59;67.71;101107.66;5013610;28;20113;-43
2022/12/08 01:44:13;;;;;;;2.28;1.25;;;;;;;8.48;67.84;101118.66;5014155;28;20059;-45
2022/12/08 01:46:41;;;;;;;2.85;1.20;;;;;;;8.42;68.83;101120.22;5013913;28;20507;-46
2022/12/08 01:49:16;;;;;;;2.00;1.17;;;;;;;8.54;68.22;101120.50;5013058;28;20057;-44
2022/12/08 01:51:45;;;;;;;2.83;1.30;;;;;;;8.63;68.03;101127.69;5014353;28;20034;-43
2022/12/08 01:54:11;;;;;;;4.28;1.10;;;;;;;8.63;67.94;101118.16;5014522;28;20148;-44
2022/12/08 01:56:45;;;;;;;4.85;1.40;;;;;;;8.66;67.80;101118.22;5014021;28;20033;-43
2022/12/08 01:59:10;;;;;;;3.40;1.20;;;;;;;8.70;67.90;101104.50;5014375;28;20033;-44
2022/12/08 02:01:36;;;;;;;2.20;1.30;;;;;;;8.72;67.70;101104.53;5013768;28;20022;-45
2022/12/08 02:04:03;;;;;;;2.88;1.23;;;;;;;8.66;68.21;101110.44;5014250;28;20510;-43
2022/12/08 02:06:32;;;;;;;3.15;0.82;;;;;;;8.68;68.20;101102.69;5013915;28;20030;-47
2022/12/08 02:09:00;;;;;;;3.78;0.90;;;;;;;8.54;68.72;101104.94;5013584;28;20030;-43
2022/12/08 02:11:25;;;;;;;2.63;1.15;;;;;;;8.63;68.44;101101.69;5013888;28;20423;-43
2022/12/08 02:13:53;;;;;;;5.00;0.60;;;;;;;8.40;69.57;101106.31;5014216;28;20030;-46
2022/12/08 02:16:34;;;;;;;4.78;0.50;;;;;;;8.25;70.27;101111.94;5013932;28;20483;-44
2022/12/08 02:19:22;;;;;;;2.80;0.47;;;;;;;8.41;70.02;101108.97;5013903;28;20030;-49
2022/12/08 02:21:59;;;;;;;5.07;0.70;;;;;;;8.19;70.58;101116.09;5013477;28;20467;-44
2022/12/08 02:24:57;;;;;;;6.10;0.68;;;;;;;8.20;69.89;101110.06;5013233;28;20107;-44
2022/12/08 02:27:37;;;;;;;3.97;0.40;;;;;;;7.29;70.96;101117.00;5011880;28;20149;-43
2022/12/08 02:30:22;;;;;;;2.75;0.50;;;;;;;7.83;69.41;101116.84;5012853;28;20026;-43
2022/12/08 02:32:57;;;;;;;2.80;0.60;;;;;;;7.83;68.78;101110.78;5012874;28;20533;-46
2022/12/08 02:35:25;;;;;;;3.03;0.50;;;;;;;7.54;71.15;101103.06;5012913;28;20564;-45
2022/12/08 02:38:23;;;;;;;3.42;0.52;;;;;;;7.92;69.89;101088.56;5012979;28;20388;-46
2022/12/08 02:40:54;;;;;;;3.00;0.60;;;;;;;7.66;70.32;101084.34;5013607;28;20026;-47
2022/12/08 02:43:43;;;;;;;2.15;0.43;;;;;;;8.16;69.25;101070.16;5013613;28;20022;-44
2022/12/08 02:46:15;;;;;;;1.70;0.35;;;;;;;7.99;69.73;101071.44;5011935;28;20514;-45
2022/12/08 02:48:41;;;;;;;7.00;0.70;;;;;;;7.55;70.79;101083.19;5013089;28;20113;-43
2022/12/08 02:51:06;;;;;;;5.05;0.60;;;;;;;7.26;71.85;101066.75;5013225;28;20104;-43
2022/12/08 02:53:34;;;;;;;1.33;0.30;;;;;;;7.28;71.79;101046.94;5012512;28;20026;-43
2022/12/08 02:56:21;;;;;;;1.02;0.28;;;;;;;7.39;70.58;101044.63;5012232;28;20029;-46
2022/12/08 02:59:03;;;;;;;1.17;0.20;;;;;;;7.77;69.30;101048.31;5011342;28;20084;-41
2022/12/08 03:01:52;;;;;;;6.35;0.60;;;;;;;7.70;70.47;101060.25;5013183;28;20113;-43
2022/12/08 03:04:52;;;;;;;2.40;0.50;;;;;;;7.75;70.61;101045.66;5007785;28;20045;-45
2022/12/08 03:07:33;;;;;;;3.30;0.47;;;;;;;8.04;70.55;101052.56;5014323;28;20058;-49
2022/12/08 03:10:34;;;;;;;4.55;0.60;;;;;;;8.06;70.75;101057.75;5012872;28;20072;-45
2022/12/08 03:13:09;;;;;;;5.00;0.60;;;;;;;7.77;71.69;101056.09;5012566;28;20041;-43
2022/12/08 03:15:37;;;;;;;2.97;0.60;;;;;;;7.82;71.70;101052.78;5013562;28;20049;-43
2022/12/08 03:18:05;;;;;;;4.47;0.70;;;;;;;8.06;70.48;101047.38;5014579;28;20061;-43
2022/12/08 03:20:33;;;;;;;5.15;0.70;;;;;;;8.11;70.83;101033.66;5011854;28;20029;-42
2022/12/08 03:23:01;;;;;;;3.90;0.63;;;;;;;8.03;70.91;101039.53;5012889;28;20393;-45
2022/12/08 03:25:32;;;;;;;5.20;0.50;;;;;;;7.81;71.50;101037.19;5013094;28;20084;-47
2022/12/08 03:27:59;;;;;;;5.70;0.70;;;;;;;7.84;71.31;101027.78;5013221;28;20544;-43
2022/12/08 03:30:28;;;;;;;4.60;0.65;;;;;;;7.67;71.41;101029.03;5012267;28;20394;-43
2022/12/08 03:33:04;;;;;;;3.13;0.63;;;;;;;7.71;71.45;101025.69;5011926;28;20021;-45
2022/12/08 03:35:34;;;;;;;4.25;0.50;;;;;;;7.54;71.71;101026.94;5012437;28;20037;-43
2022/12/08 03:38:09;;;;;;;2.38;0.47;;;;;;;7.46;71.35;101018.03;5011354;28;20589;-45
2022/12/08 03:40:35;;;;;;;8.63;0.60;;;;;;;7.78;70.40;101022.41;5010962;28;20022;-41
2022/12/08 03:43:00;;;;;;;1.90;0.40;;;;;;;7.77;69.85;101018.06;5011494;28;20048;-46
2022/12/08 03:45:26;;;;;;;5.03;0.32;;;;;;;7.85;69.63;101008.78;5011626;28;20064;-44
2022/12/08 03:47:51;;;;;;;2.17;0.50;;;;;;;7.88;69.50;101000.16;5011712;28;20029;-43
2022/12/08 03:50:17;;;;;;;4.70;0.50;;;;;;;7.68;70.21;101008.28;5009816;28;20018;-41
2022/12/08 03:52:42;;;;;;;3.28;0.47;;;;;;;7.95;69.09;101002.09;5011487;28;20033;-51
2022/12/08 03:55:08;;;;;;;2.55;0.68;;;;;;;8.10;68.65;101002.50;5011919;28;20034;-42
2022/12/08 03:57:33;;;;;;;3.83;0.80;;;;;;;7.85;69.27;100997.50;5011346;28;20030;-43
2022/12/08 03:59:59;;;;;;;2.95;0.43;;;;;;;7.68;69.85;100999.66;5011365;28;20064;-43
2022/12/08 04:02:24;;;;;;;3.40;0.70;;;;;;;7.70;69.53;101000.56;5011362;28;20100;-44
2022/12/08 04:04:49;;;;;;;2.20;0.50;;;;;;;7.98;68.47;101007.38;5011373;28;20040;-47
2022/12/08 04:07:14;;;;;;;6.18;0.55;;;;;;;7.74;69.39;100999.81;5011386;28;20036;-40
2022/12/08 04:09:40;;;;;;;5.47;0.47;;;;;;;7.37;70.65;100994.47;5011600;28;20072;-42
2022/12/08 04:12:07;;;;;;;4.50;0.40;;;;;;;7.63;70.09;100999.50;5012326;28;20021;-44
2022/12/08 04:14:32;;;;;;;3.85;0.50;;;;;;;7.73;69.86;101006.72;5015632;28;20517;-44
2022/12/08 04:16:57;;;;;;;6.32;0.60;;;;;;;7.67;70.21;101008.28;5015287;28;20354;-45
2022/12/08 04:19:23;;;;;;;1.77;0.50;;;;;;;7.74;69.40;101000.66;5015299;28;20037;-47
2022/12/08 04:21:48;;;;;;;3.85;0.40;;;;;;;7.65;69.79;101003.03;5015397;28;20022;-42
2022/12/08 04:24:13;;;;;;;0.98;0.32;;;;;;;7.52;70.46;101008.72;5015088;28;20049;-42
2022/12/08 04:26:38;;;;;;;1.48;0.30;;;;;;;7.66;69.53;101003.91;5015082;28;20061;-46
2022/12/08 04:29:04;;;;;;;4.95;0.50;;;;;;;7.65;69.65;100996.97;5015150;28;20079;-43
2022/12/08 04:31:29;;;;;;;3.42;0.70;;;;;;;7.48;70.30;100995.63;5014738;28;20058;-44
2022/12/08 04:33:54;;;;;;;4.93;0.65;;;;;;;7.41;69.86;100996.28;5014759;28;20038;-46
2022/12/08 04:36:20;;;;;;;2.15;0.30;;;;;;;7.59;69.97;100989.03;5014640;28;20014;-44
2022/12/08 04:38:45;;;;;;;3.03;0.40;;;;;;;7.68;69.75;100987.53;5014456;28;20030;-46
2022/12/08 04:41:10;;;;;;;2.47;0.40;;;;;;;8.00;68.54;100975.41;5013916;28;20025;-45
2022/12/08 04:43:36;;;;;;;1.50;0.40;;;;;;;7.93;68.29;100975.22;5014344;28;20026;-43
2022/12/08 04:46:05;;;;;;;1.98;0.40;;;;;;;7.72;68.36;100966.03;5014586;28;20018;-44
2022/12/08 04:48:30;;;;;;;2.72;0.40;;;;;;;7.85;68.01;100967.25;5013897;28;20030;-43
2022/12/08 04:50:56;;;;;;;2.65;0.50;;;;;;;7.56;69.12;100976.81;5013792;28;20026;-43
2022/12/08 04:53:21;;;;;;;3.70;0.50;;;;;;;7.72;68.11;100962.56;5014167;28;20073;-44
2022/12/08 04:55:48;;;;;;;2.05;0.50;;;;;;;7.51;68.33;100960.25;5014187;28;20440;-43
2022/12/08 04:58:16;;;;;;;2.42;0.40;;;;;;;7.50;68.65;100961.09;5013076;28;20183;-44
2022/12/08 05:00:42;;;;;;;3.03;0.52;;;;;;;7.50;68.52;100961.09;5012750;28;20037;-46
2022/12/08 05:03:08;;;;;;;4.88;0.50;;;;;;;7.68;68.64;100958.16;5013435;28;20544;-43
2022/12/08 05:05:33;;;;;;;1.88;0.80;;;;;;;8.04;67.14;100958.19;5013718;28;20025;-43
2022/12/08 05:07:58;;;;;;;2.83;0.70;;;;;;;7.98;67.23;100958.06;5013629;28;20025;-49
2022/12/08 05:10:23;;;;;;;4.00;0.60;;;;;;;7.84;67.75;100955.09;5013430;28;20032;-45
2022/12/08 05:12:49;;;;;;;4.43;0.60;;;;;;;7.92;67.62;100956.19;5013547;28;20100;-44
2022/12/08 05:15:14;;;;;;;3.53;0.60;;;;;;;7.53;68.39;100955.13;5013316;28;20022;-43
2022/12/08 05:17:39;;;;;;;2.47;0.70;;;;;;;7.69;69.05;100950.38;5013335;28;20034;-43
2022/12/08 05:20:05;;;;;;;3.83;0.60;;;;;;;7.62;69.15;100943.25;5013630;28;20026;-45
2022/12/08 05:22:31;;;;;;;2.45;0.50;;;;;;;7.62;68.92;100943.25;5013504;28;20202;-48
2022/12/08 05:24:56;;;;;;;1.88;0.55;;;;;;;7.82;68.49;100937.72;5012596;28;20026;-43
2022/12/08 05:27:21;;;;;;;6.55;0.70;;;;;;;7.93;67.66;100941.47;5013960;28;20382;-51
2022/12/08 05:29:47;;;;;;;2.95;0.50;;;;;;;7.75;68.87;100945.34;5015396;28;20061;-44
2022/12/08 05:32:12;;;;;;;3.35;0.90;;;;;;;7.31;69.35;100964.94;5015406;28;20101;-45
2022/12/08 05:34:38;;;;;;;2.42;0.50;;;;;;;7.30;70.03;100963.16;5014886;28;20030;-49
2022/12/08 05:37:03;;;;;;;2.30;0.50;;;;;;;7.34;70.46;100962.41;5014275;28;20080;-47
2022/12/08 05:39:28;;;;;;;0.98;0.30;;;;;;;7.15;71.08;100973.09;5012757;28;20064;-41
2022/12/08 05:41:54;;;;;;;4.20;0.70;;;;;;;7.10;71.82;100974.69;5012400;28;20393;-37
2022/12/08 05:44:19;;;;;;;2.33;0.30;;;;;;;6.90;72.65;100976.69;5012472;28;20056;-39
2022/12/08 05:46:44;;;;;;;2.53;0.50;;;;;;;7.16;72.50;100984.34;5012287;28;20455;-42
2022/12/08 05:49:10;;;;;;;0.80;0.25;;;;;;;6.88;71.94;100988.75;5012396;28;20029;-39
2022/12/08 05:51:35;;;;;;;3.38;0.50;;;;;;;6.89;71.50;100993.06;5012286;28;20026;-45
2022/12/08 05:54:00;;;;;;;2.53;0.20;;;;;;;6.66;71.82;100998.38;5011373;28;20022;-38
2022/12/08 05:56:26;;;;;;;2.40;0.35;;;;;;;6.74;71.33;100994.31;5012846;28;20026;-39
2022/12/08 05:58:51;;;;;;;3.42;0.30;;;;;;;6.70;70.29;100992.47;5012847;28;20392;-46
2022/12/08 06:01:26;;;;;;;1.10;0.20;;;;;;;6.75;70.41;100991.78;5012995;28;20022;-41
2022/12/08 06:03:52;;;;;;;0.80;0.30;;;;;;;6.85;70.15;100983.44;5013133;28;20029;-39
2022/12/08 06:06:18;;;;;;;1.40;0.30;;;;;;;6.70;70.35;100974.34;5013605;28;20509;-45
2022/12/08 06:08:43;;;;;;;3.03;0.60;;;;;;;6.80;71.08;100981.56;5014780;28;20026;-42
2022/12/08 06:11:09;;;;;;;1.13;0.30;;;;;;;6.75;71.05;100977.94;5013760;28;20441;-39
2022/12/08 06:13:35;;;;;;;1.77;0.40;;;;;;;7.08;69.88;100976.34;5014009;28;20182;-39
2022/12/08 06:16:05;;;;;;;0.60;0.28;;;;;;;7.16;70.00;100971.38;5011912;28;20109;-43
2022/12/08 06:18:30;;;;;;;3.25;0.30;;;;;;;7.25;69.68;100969.94;5011849;28;20037;-39
2022/12/08 06:21:02;;;;;;;1.33;0.30;;;;;;;7.38;69.42;100978.06;5010902;28;20045;-39
2022/12/08 06:23:28;;;;;;;0.70;0.30;;;;;;;7.26;69.70;100970.78;5011161;28;20044;-45
2022/12/08 06:25:53;;;;;;;1.45;0.38;;;;;;;7.37;69.73;100971.13;5011468;28;20022;-43
2022/12/08 06:28:18;;;;;;;1.90;0.40;;;;;;;7.52;69.53;100961.16;5011235;28;20036;-43
2022/12/08 06:30:44;;;;;;;0.60;0.30;;;;;;;7.40;69.08;100953.03;5010862;28;20025;-44
2022/12/08 06:33:09;;;;;;;2.30;0.40;;;;;;;7.52;69.11;100956.84;5011312;28;20521;-43
2022/12/08 06:35:34;;;;;;;1.25;0.40;;;;;;;7.61;68.79;100951.91;5011006;28;20034;-40
2022/12/08 06:37:59;;;;;;;1.38;0.30;;;;;;;7.54;69.02;100942.22;5011753;28;20088;-42
2022/12/08 06:40:25;;;;;;;0.85;0.30;;;;;;;7.50;69.11;100952.47;5010572;28;20034;-43
2022/12/08 06:42:50;;;;;;;1.20;0.40;;;;;;;7.56;68.83;100940.50;5011196;28;20026;-41
2022/12/08 06:45:17;;;;;;;1.92;0.38;;;;;;;7.62;68.86;100943.25;5010778;28;20109;-44
2022/12/08 06:47:43;;;;;;;1.85;0.50;;;;;;;7.55;69.32;100945.69;5010945;28;20509;-43
2022/12/08 06:50:10;;;;;;;2.50;0.50;;;;;;;7.46;69.53;100946.28;5010723;28;20022;-43
2022/12/08 06:52:36;;;;;;;1.80;0.50;;;;;;;7.39;69.79;100946.09;5010926;28;20034;-40
2022/12/08 06:55:01;;;;;;;2.05;0.70;;;;;;;7.56;69.54;100943.09;5010624;28;20022;-39
2022/12/08 06:57:27;;;;;;;1.88;0.52;;;;;;;7.26;70.11;100953.53;5010927;28;20037;-40
2022/12/08 06:59:52;;;;;;;3.55;0.80;;;;;;;7.44;70.09;100949.72;5010561;28;20113;-38
2022/12/08 07:02:17;;;;;;;2.42;0.50;;;;;;;7.45;70.06;100943.66;5010514;28;20026;-41
2022/12/08 07:04:42;;;;;;;1.58;0.50;;;;;;;7.56;69.65;100947.44;5010635;28;20030;-43
2022/12/08 07:07:08;;;;;;;3.65;0.70;;;;;;;7.68;69.10;100947.75;5011090;28;20026;-39
2022/12/08 07:09:34;;;;;;;2.45;0.60;;;;;;;7.62;69.49;100945.84;5010763;28;20514;-36
2022/12/08 07:11:59;;;;;;;2.85;0.52;;;;;;;7.65;69.25;100934.69;5009942;28;20498;-43
2022/12/08 07:14:24;;;;;;;3.83;0.77;;;;;;;7.64;69.20;100935.53;5010455;28;20022;-38
2022/12/08 07:16:50;;;;;;;2.85;0.60;;;;;;;7.62;69.43;100932.88;5010121;28;20391;-41
2022/12/08 07:19:16;;;;;;;1.85;0.70;;;;;;;7.61;69.15;100935.47;5010149;28;20034;-41
2022/12/08 07:21:42;;;;;;;2.90;0.70;;;;;;;7.62;69.31;100937.22;5010137;28;20021;-41
2022/12/08 07:24:07;;;;;;;1.70;0.70;;;;;;;7.63;69.21;100937.25;5011087;28;20034;-38
2022/12/08 07:26:33;;;;;;;5.53;0.80;;;;;;;7.59;69.30;100932.81;5011080;28;20485;-39
2022/12/08 07:28:59;;;;;;;3.03;0.80;;;;;;;7.40;69.60;100935.75;5010686;28;20386;-45
2022/12/08 07:31:25;;;;;;;3.03;0.73;;;;;;;7.34;69.93;100936.47;5009778;28;20026;-43
2022/12/08 07:33:51;;;;;;;4.18;0.90;;;;;;;7.42;69.65;100943.59;5010718;28;20025;-41
2022/12/08 07:36:17;;;;;;;3.33;1.00;;;;;;;7.38;69.73;100939.16;5011515;28;20055;-41
2022/12/08 07:38:43;;;;;;;4.85;1.10;;;;;;;7.25;70.48;100936.25;5011411;28;20498;-41
2022/12/08 07:41:17;;;;;;;5.38;1.08;;;;;;;7.29;70.68;100938.06;5011278;28;20050;-39
2022/12/08 07:43:43;;;;;;;1.83;1.00;;;;;;;7.53;69.97;100929.19;5011894;28;20394;-38
2022/12/08 07:46:13;;;;;;;7.43;1.27;;;;;;;7.34;70.61;100927.81;5011302;28;20526;-43
2022/12/08 07:48:38;;;;;;;3.67;1.23;;;;;;;7.52;70.47;100925.72;5014385;28;20025;-41
2022/12/08 07:51:04;;;;;;;4.03;1.30;;;;;;;7.38;70.73;100921.84;5013818;28;20036;-42
2022/12/08 07:53:30;;;;;;;4.03;1.50;;;;;;;7.52;70.31;100928.31;5014511;28;20032;-46
2022/12/08 07:55:56;;;;;;;2.15;1.15;;;;;;;7.61;70.04;100925.09;5014169;28;20026;-41
2022/12/08 07:58:21;;;;;;;5.18;1.30;;;;;;;7.34;70.66;100931.28;5014183;28;20037;-40
2022/12/08 08:00:46;;;;;;;4.22;1.20;;;;;;;7.39;70.71;100925.34;5013937;28;20509;-41
2022/12/08 08:03:12;;;;;;;3.17;1.10;;;;;;;7.47;71.04;100929.03;5014191;28;20022;-44
2022/12/08 08:05:37;;;;;;;3.88;1.00;;;;;;;7.27;71.27;100941.44;5014151;28;20495;-42
2022/12/08 08:08:03;;;;;;;5.22;1.30;;;;;;;7.59;70.49;100939.72;5014174;28;20029;-44
2022/12/08 08:10:29;;;;;;;4.70;1.20;;;;;;;7.36;71.03;100953.78;5013600;28;20030;-41
2022/12/08 08:12:57;;;;;;;2.95;0.88;;;;;;;7.43;70.87;100960.91;5014115;28;20363;-42
2022/12/08 08:15:23;;;;;;;5.82;1.20;;;;;;;7.50;70.17;100968.03;5013934;28;20034;-42
2022/12/08 08:17:50;;;;;;;6.07;1.17;;;;;;;7.12;70.53;100972.13;5013519;28;20566;-42
2022/12/08 08:20:16;;;;;;;3.67;0.80;;;;;;;6.88;70.87;100975.78;5013697;28;20040;-41
2022/12/08 08:22:42;;;;;;;3.30;0.55;;;;;;;7.14;69.87;100973.91;5013735;28;20076;-39
2022/12/08 08:25:07;;;;;;;3.45;0.77;;;;;;;6.87;68.96;100978.31;5013727;28;20025;-43
2022/12/08 08:27:33;;;;;;;2.28;0.75;;;;;;;6.88;69.57;100972.31;5013312;28;20026;-40
2022/12/08 08:29:58;;;;;;;2.80;0.75;;;;;;;7.09;68.41;100979.81;5013439;28;20139;-41
2022/12/08 08:32:23;;;;;;;2.83;0.68;;;;;;;7.18;68.59;100977.50;5013294;28;20051;-42
2022/12/08 08:34:49;;;;;;;5.57;0.52;;;;;;;7.22;68.15;100985.41;5013500;28;20492;-39
2022/12/08 08:37:15;;;;;;;3.28;0.70;;;;;;;7.46;67.64;100972.25;5013424;28;20058;-40
2022/12/08 08:39:41;;;;;;;1.88;0.50;;;;;;;7.47;67.54;100966.22;5013630;28;20150;-40
2022/12/08 08:42:07;;;;;;;2.55;0.52;;;;;;;7.40;67.96;100966.88;5012742;28;20057;-41
2022/12/08 08:44:32;;;;;;;3.58;0.70;;;;;;;7.45;67.88;100964.41;5013836;28;20079;-42
2022/12/08 08:46:57;;;;;;;3.35;1.08;;;;;;;7.52;67.67;100972.41;5013720;28;20048;-42
2022/12/08 08:49:23;;;;;;;5.65;0.90;;;;;;;6.74;70.18;100976.19;5014169;28;20072;-41
2022/12/08 08:51:48;;;;;;;3.72;0.95;;;;;;;6.95;70.14;100978.56;5014417;28;20092;-42
2022/12/08 08:54:14;;;;;;;4.15;0.90;;;;;;;7.21;69.51;100975.88;5014044;28;20053;-40
2022/12/08 08:56:39;;;;;;;4.68;0.93;;;;;;;7.03;70.00;100980.53;5013827;28;20036;-40
2022/12/08 08:59:04;;;;;;;3.20;1.10;;;;;;;7.33;69.28;100973.63;5013657;28;20022;-40
2022/12/08 09:01:30;;;;;;;2.40;0.98;;;;;;;7.36;69.60;100970.25;5014024;28;20084;-40
2022/12/08 09:03:55;;;;;;;3.00;0.90;;;;;;;7.32;69.36;100970.97;5014651;28;20061;-41
2022/12/08 09:06:22;;;;;;;3.17;0.65;;;;;;;7.10;70.05;100977.28;5015041;28;20050;-42
2022/12/08 09:08:48;;;;;;;2.22;0.82;;;;;;;7.18;69.43;100974.91;5013511;28;20029;-48
2022/12/08 09:11:14;;;;;;;4.00;0.80;;;;;;;7.42;69.44;100964.34;5012662;28;20022;-41
2022/12/08 09:13:40;;;;;;;1.63;0.65;;;;;;;7.46;69.43;100955.78;5012475;28;20112;-42
2022/12/08 09:16:07;;;;;;;4.22;1.00;;;;;;;7.53;69.13;100944.75;5012333;28;20105;-39
2022/12/08 09:18:33;;;;;;;3.08;1.00;;;;;;;7.45;69.42;100951.44;5040019;23;20045;-43
2022/12/08 09:21:13;;;;;;;4.07;1.20;;;;;;;7.42;69.38;100947.06;5033563;28;20550;-42
2022/12/08 09:23:39;;;;;;;2.22;0.90;;;;;;;7.30;69.54;100951.91;5035257;28;20040;-44
2022/12/08 09:26:05;;;;;;;3.67;0.90;;;;;;;7.34;69.78;100953.75;5035227;28;20025;-44
2022/12/08 09:28:31;;;;;;;3.55;0.90;;;;;;;7.46;69.35;100950.59;5033008;28;20527;-42
2022/12/08 09:30:56;;;;;;;2.67;0.85;;;;;;;7.54;69.32;100949.09;5032935;28;20409;-48
2022/12/08 09:33:22;;;;;;;3.13;0.77;;;;;;;7.61;68.92;100953.63;5032373;28;20338;-43
2022/12/08 09:35:47;;;;;;;2.50;0.60;;;;;;;7.79;69.19;100948.03;5032307;28;20029;-43
2022/12/08 09:38:13;;;;;;;3.35;0.68;;;;;;;7.68;69.05;100945.16;5032289;28;20382;-43
2022/12/08 09:40:52;;;;;;;1.90;0.57;;;;;;;7.48;68.97;100949.81;5031827;28;20272;-43
2022/12/08 09:43:39;;;;;;;3.15;0.70;;;;;;;7.48;68.56;100954.13;5033252;28;20029;-43
2022/12/08 09:46:08;;;;;;;2.75;0.73;;;;;;;7.71;68.70;100950.41;5032043;28;20025;-45
2022/12/08 09:48:38;;;;;;;1.65;0.50;;;;;;;7.56;68.71;100950.88;5032308;28;20076;-45
2022/12/08 09:51:04;;;;;;;2.00;0.50;;;;;;;7.22;68.70;100958.59;5032072;28;20044;-43
2022/12/08 09:53:51;;;;;;;2.25;0.57;;;;;;;6.64;70.38;100964.69;5032829;28;20021;-50
2022/12/08 09:56:29;;;;;;;3.13;1.10;;;;;;;7.12;70.33;100973.03;5032978;28;20037;-43
2022/12/08 09:59:19;;;;;;;3.53;0.82;;;;;;;6.62;71.22;100970.63;5033569;28;20029;-43
2022/12/08 10:01:45;;;;;;;2.28;0.60;;;;;;;6.99;69.88;100970.91;5032723;28;20061;-46
2022/12/08 10:04:33;;;;;;;3.28;0.60;;;;;;;7.11;70.10;100967.78;5033023;28;20399;-46
2022/12/08 10:07:25;;;;;;;1.75;0.50;;;;;;;6.96;69.96;100962.13;5032524;28;20040;-45
2022/12/08 10:10:25;;;;;;;3.03;0.52;;;;;;;6.93;69.56;100963.84;5031935;28;20565;-44
2022/12/08 10:13:01;;;;;;;1.00;0.40;;;;;;;6.90;70.27;100963.72;5033557;28;20436;-44
2022/12/08 10:15:48;;;;;;;1.40;0.52;;;;;;;7.19;69.57;100954.22;5033673;28;20025;-48
2022/12/08 10:18:17;;;;;;;2.63;0.50;;;;;;;7.42;68.98;100956.56;5033353;28;20448;-45
2022/12/08 10:20:46;;;;;;;1.83;0.52;;;;;;;7.31;69.10;100959.75;5031267;28;20431;-43
2022/12/08 10:23:11;;;;;;;1.25;0.50;;;;;;;7.06;69.42;100956.41;5031146;28;20080;-47
2022/12/08 10:25:48;;;;;;;3.40;0.60;;;;;;;7.35;69.30;100955.50;5031030;28;20057;-43
2022/12/08 10:28:14;;;;;;;2.45;0.60;;;;;;;7.26;69.38;100955.22;5030942;28;20322;-45
2022/12/08 10:30:39;;;;;;;5.05;0.80;;;;;;;6.99;70.15;100952.75;5030888;28;20017;-45
2022/12/08 10:33:13;;;;;;;1.65;0.50;;;;;;;7.04;69.83;100946.00;5031250;28;20025;-46
2022/12/08 10:35:43;;;;;;;1.42;0.63;;;;;;;7.14;69.45;100941.94;5032202;28;20047;-46
2022/12/08 10:38:20;;;;;;;1.98;0.73;;;;;;;6.99;69.93;100937.22;5031892;28;20061;-46
2022/12/08 10:40:48;;;;;;;2.40;0.90;;;;;;;7.32;69.69;100914.78;5031282;28;20033;-42
2022/12/08 10:43:21;;;;;;;2.95;0.90;;;;;;;7.42;69.01;100907.28;5032176;28;20108;-46
2022/12/08 10:45:47;;;;;;;1.75;0.85;;;;;;;7.16;69.72;100907.44;5031189;28;20029;-45
2022/12/08 10:48:15;;;;;;;5.05;0.80;;;;;;;6.86;70.87;100916.94;5030306;28;20097;-43
2022/12/08 10:50:56;;;;;;;1.55;0.80;;;;;;;7.42;69.79;100910.75;5030308;28;20397;-43
2022/12/08 10:53:25;;;;;;;2.58;0.88;;;;;;;7.44;69.32;100901.28;5030280;28;20025;-44
2022/12/08 10:56:01;;;;;;;3.15;1.40;;;;;;;7.60;68.92;100893.06;5030612;28;20021;-49
2022/12/08 10:58:46;;;;;;;2.13;1.00;;;;;;;7.75;68.88;100897.75;5030503;28;20017;-43
2022/12/08 11:01:24;;;;;;;2.58;1.10;;;;;;;7.61;68.24;100893.94;5030195;28;20029;-45
2022/12/08 11:04:05;;;;;;;1.98;1.02;;;;;;;7.74;68.53;100883.91;5030615;28;20051;-44
2022/12/08 11:06:34;;;;;;;5.53;1.27;;;;;;;7.75;68.20;100887.38;5030981;28;20083;-45
2022/12/08 11:09:21;;;;;;;2.30;1.00;;;;;;;7.91;68.12;100879.13;5030318;28;20088;-42
2022/12/08 11:11:56;;;;;;;3.92;0.90;;;;;;;7.81;68.10;100868.50;5030260;28;20029;-45
2022/12/08 11:14:30;;;;;;;1.70;1.10;;;;;;;7.61;68.20;100873.19;5030165;28;20033;-43
2022/12/08 11:17:06;;;;;;;4.40;1.08;;;;;;;7.59;68.83;100875.75;5030025;28;20032;-44
2022/12/08 11:19:36;;;;;;;1.90;1.10;;;;;;;7.76;68.39;100865.78;5029786;28;20116;-45
2022/12/08 11:22:01;;;;;;;2.55;1.00;;;;;;;7.90;67.78;100864.41;5028679;28;20075;-43
2022/12/08 11:24:28;;;;;;;2.47;1.10;;;;;;;7.52;68.05;100858.25;5030029;28;20029;-50
2022/12/08 11:26:59;;;;;;;2.60;1.00;;;;;;;7.68;68.34;100862.13;5030210;28;20025;-44
2022/12/08 11:29:27;;;;;;;2.00;1.00;;;;;;;7.91;68.20;100860.09;5028908;28;20037;-43
2022/12/08 11:31:58;;;;;;;3.08;0.98;;;;;;;7.39;68.81;100861.38;5029735;28;20029;-43
2022/12/08 11:34:32;;;;;;;2.03;0.80;;;;;;;7.23;68.76;100875.66;5029992;28;20087;-45
2022/12/08 11:36:58;;;;;;;3.03;1.00;;;;;;;6.76;70.54;100889.91;5030088;28;20152;-44
2022/12/08 11:39:26;;;;;;;2.03;1.00;;;;;;;6.70;72.13;100913.06;5030575;28;20025;-45
2022/12/08 11:41:55;;;;;;;3.47;1.10;;;;;;;6.95;71.31;100914.66;5030445;28;20034;-44
2022/12/08 11:44:37;;;;;;;2.13;1.15;;;;;;;6.37;72.55;100910.31;5028788;28;20481;-41